Time;durP1;ratioP1;P1;durP2;ratioP2;P2;SDS_P1;SDS_P2;PMS_P1;PMS_P2;Temp;Humidity;BMP_temperature;BMP_pressure;BME280_temperature;BME280_humidity;BME280_pressure;Samples;Min_cycle;Max_cycle;Signal;HPM_P1;HPM_P2
2021/07/21 06:58:36;;;;;;;;;27.67;22.67;;;;;22.95;55.22;101898.72;4769660;29;45918;-80
2021/07/21 07:01:01;;;;;;;;;27.33;24.67;;;;;22.97;54.22;101896.91;4771836;29;46205;-81
2021/07/21 07:03:26;;;;;;;;;26.00;22.67;;;;;22.98;53.91;101893.31;4772084;29;45404;-81
2021/07/21 07:05:54;;;;;;;;;27.33;24.33;;;;;22.98;54.55;101896.00;4770558;29;45296;-82
2021/07/21 07:08:19;;;;;;;;;25.67;23.00;;;;;23.02;53.96;101897.72;4765163;29;45330;-81
2021/07/21 07:10:44;;;;;;;;;28.67;22.00;;;;;23.06;54.42;101900.34;4771786;29;46113;-82
2021/07/21 07:13:10;;;;;;;;;27.00;25.00;;;;;23.11;53.97;101903.84;4771905;29;45396;-81
2021/07/21 07:15:35;;;;;;;;;27.33;26.00;;;;;23.14;54.37;101902.00;4771959;29;45336;-82
2021/07/21 07:18:00;;;;;;;;;28.67;23.67;;;;;23.17;54.91;101897.47;4772092;29;45324;-82
2021/07/21 07:20:26;;;;;;;;;25.33;23.00;;;;;23.19;54.09;101896.56;4771691;29;45329;-81
2021/07/21 07:22:51;;;;;;;;;26.33;24.33;;;;;23.22;54.46;101901.88;4771576;29;45337;-82
2021/07/21 07:25:17;;;;;;;;;26.33;21.67;;;;;23.24;54.91;101894.69;4772083;29;45443;-82
2021/07/21 07:27:42;;;;;;;;;26.67;24.00;;;;;23.28;54.42;101899.97;4772366;29;45239;-81
2021/07/21 07:30:10;;;;;;;;;27.00;25.67;;;;;23.30;55.00;101900.84;4771896;29;45538;-81
2021/07/21 07:32:36;;;;;;;;;25.67;23.33;;;;;23.30;55.20;101888.31;4771537;29;45401;-82
2021/07/21 07:35:02;;;;;;;;;29.00;22.00;;;;;23.39;55.18;101898.00;4771698;29;45436;-82
2021/07/21 07:37:28;;;;;;;;;31.00;25.67;;;;;23.36;55.55;101895.38;4771736;29;45367;-82
2021/07/21 07:39:53;;;;;;;;;30.00;26.33;;;;;23.43;54.73;101910.44;4771423;29;45314;-82
2021/07/21 07:42:18;;;;;;;;;28.00;24.67;;;;;23.46;54.78;101905.03;4771522;29;45451;-82
2021/07/21 07:44:44;;;;;;;;;29.67;26.33;;;;;23.45;54.63;101902.38;4771469;29;45536;-82
2021/07/21 07:47:09;;;;;;;;;26.67;25.67;;;;;23.51;55.01;101906.75;4771973;29;45349;-82
2021/07/21 07:49:35;;;;;;;;;30.33;28.67;;;;;23.53;54.62;101904.94;4771359;29;46111;-82
2021/07/21 07:52:00;;;;;;;;;34.67;27.67;;;;;23.59;54.53;101915.56;4771590;29;45375;-82
2021/07/21 07:54:26;;;;;;;;;34.67;30.00;;;;;23.62;54.68;101909.25;4773773;29;45294;-82
2021/07/21 07:56:51;;;;;;;;;35.67;27.67;;;;;23.62;54.69;101902.09;4774856;29;45458;-82
2021/07/21 07:59:17;;;;;;;;;26.33;25.33;;;;;23.68;54.59;101896.59;4774683;29;45370;-82
2021/07/21 08:01:42;;;;;;;;;33.00;29.00;;;;;23.73;55.16;101901.00;4774674;29;45366;-82
2021/07/21 08:04:08;;;;;;;;;33.00;26.33;;;;;23.77;55.46;101905.38;4774434;29;45346;-82
2021/07/21 08:06:34;;;;;;;;;26.67;25.33;;;;;23.80;54.40;101897.25;4774838;29;45243;-83
2021/07/21 08:09:00;;;;;;;;;28.67;27.00;;;;;23.83;54.41;101899.91;4773017;29;46181;-83
2021/07/21 08:11:26;;;;;;;;;27.33;23.33;;;;;23.90;54.39;101900.66;4774574;29;45362;-83
2021/07/21 08:13:51;;;;;;;;;30.33;26.33;;;;;23.93;54.27;101898.78;4774247;29;45556;-83
2021/07/21 08:16:16;;;;;;;;;27.33;23.67;;;;;23.98;53.43;101898.72;4774466;29;45346;-82
2021/07/21 08:18:42;;;;;;;;;22.67;22.00;;;;;24.02;54.25;101902.19;4774178;29;45976;-83
2021/07/21 08:21:07;;;;;;;;;27.33;22.67;;;;;24.04;54.13;101901.25;4774243;29;45359;-84
2021/07/21 08:23:33;;;;;;;;;26.00;23.33;;;;;24.11;53.48;101893.97;4774308;29;45394;-84
2021/07/21 08:25:59;;;;;;;;;28.67;25.33;;;;;24.25;53.13;101907.13;4774550;29;45360;-83
2021/07/21 08:28:25;;;;;;;;;27.33;22.33;;;;;24.40;53.39;101907.69;4774044;29;45417;-84
2021/07/21 08:30:50;;;;;;;;;25.67;21.00;;;;;24.56;53.41;101902.84;4774106;29;45308;-83
2021/07/21 08:33:16;;;;;;;;;25.33;24.00;;;;;24.85;53.08;101908.47;4772749;29;45418;-84
2021/07/21 08:35:44;;;;;;;;;26.67;21.00;;;;;25.29;53.41;101897.53;4757928;29;45499;-84
2021/07/21 08:38:11;;;;;;;;;26.00;22.33;;;;;25.92;52.55;101905.72;4773639;29;46327;-84
2021/07/21 08:40:37;;;;;;;;;22.00;21.00;;;;;26.55;51.62;101911.06;4773608;29;45247;-83
2021/07/21 11:08:23;;;;;;;;;16.50;16.00;;;;;35.69;32.18;101870.28;2650322;24;45952;31
2021/07/21 11:24:10;;;;;;;;;;;;;;;;;;;;;
2021/07/21 11:32:43;;;;;;;;;;;;;;;;;;;;;
2021/07/21 11:45:36;;;;;;;;;;;;;;;;;;;;;
2021/07/21 15:27:44;;;;;;;;;23.00;18.33;;;;;28.88;41.67;101771.06;5817869;24;46420;31
2021/07/21 18:26:54;;;;;;;;;18.50;15.50;;;;;27.62;45.97;101740.97;5478369;24;46909;31
2021/07/21 21:05:38;;;;;;;;;17.00;13.50;;;;;26.07;46.23;101845.13;5779824;24;46149;31
2021/07/21 21:34:49;;;;;;;;;;;;;;;;;;;;;
2021/07/21 21:37:21;;;;;;;;;20.33;18.67;;;;;25.81;46.74;101855.75;4802072;29;74040;-93
2021/07/21 21:42:41;;;;;;;;;19.33;16.33;;;;;25.65;46.21;101840.03;4820410;29;45418;-92
2021/07/21 21:48:52;;;;;;;;;17.33;15.33;;;;;25.70;46.41;101848.00;4705303;30;45610;-92
2021/07/21 21:51:33;;;;;;;;;;;;;;;;;;;;;
2021/07/21 21:54:44;;;;;;;;;16.67;15.67;;;;;25.71;46.32;101859.66;4858984;24;69417;-91
2021/07/21 21:57:22;;;;;;;;;19.67;15.00;;;;;25.58;46.44;101832.16;4727790;30;45374;-92
2021/07/21 21:59:51;;;;;;;;;18.67;17.33;;;;;25.68;46.40;101857.88;4724624;30;48128;-91
2021/07/21 22:02:38;;;;;;;;;;;;;;;;;;;;;
2021/07/21 22:05:54;;;;;;;;;;;;;;;;;;;;;
2021/07/21 22:08:47;;;;;;;;;;;;;;;;;;;;;
2021/07/21 22:12:21;;;;;;;;;;;;;;;;;;;;;
2021/07/21 22:29:29;;;;;;;;;19.67;18.33;;;;;25.35;46.44;101833.69;4973514;24;46927;-92
2021/07/21 22:31:55;;;;;;;;;17.00;15.33;;;;;25.34;46.46;101830.13;4812614;29;45380;-91
